Time;durP1;ratioP1;P1;durP2;ratioP2;P2;SDS_P1;SDS_P2;PMS_P1;PMS_P2;Temp;Humidity;BMP_temperature;BMP_pressure;BME280_temperature;BME280_humidity;BME280_pressure;Samples;Min_cycle;Max_cycle;Signal;HPM_P1;HPM_P2
2021/03/16 00:00:08;;;;;;;7.53;2.90;;;;;;;;;;5011662;28;20096;-71
2021/03/16 00:02:35;;;;;;;5.18;3.03;;;;;;;;;;5011771;28;20096;-70
2021/03/16 00:05:02;;;;;;;6.57;2.67;;;;;;;;;;5011353;28;20129;-71
2021/03/16 00:07:28;;;;;;;11.57;2.95;;;;;;;;;;5010991;28;20050;-71
2021/03/16 00:09:54;;;;;;;5.30;2.55;;;;;;;;;;5000900;28;20050;-71
2021/03/16 00:12:20;;;;;;;6.03;3.10;;;;;;;;;;4991982;28;20054;-72
2021/03/16 00:14:46;;;;;;;9.43;2.78;;;;;;;;;;4992160;28;20429;-71
2021/03/16 00:17:12;;;;;;;8.40;3.00;;;;;;;;;;4991221;28;20054;-72
2021/03/16 00:19:39;;;;;;;5.97;2.50;;;;;;;;;;4995580;28;20078;-71
2021/03/16 00:22:06;;;;;;;12.20;3.03;;;;;;;;;;5009254;28;20057;-71
2021/03/16 00:24:32;;;;;;;14.63;3.47;;;;;;;;;;5015063;28;20096;-71
2021/03/16 00:26:58;;;;;;;6.95;3.47;;;;;;;;;;5014142;28;20061;-71
2021/03/16 00:29:24;;;;;;;5.57;2.35;;;;;;;;;;5014830;28;20053;-72
2021/03/16 00:31:50;;;;;;;4.88;3.03;;;;;;;;;;5014887;28;20100;-71
2021/03/16 00:34:17;;;;;;;6.63;2.40;;;;;;;;;;4999234;28;20058;-71
2021/03/16 00:36:43;;;;;;;9.13;2.60;;;;;;;;;;4994564;28;20050;-71
2021/03/16 00:39:09;;;;;;;7.85;2.40;;;;;;;;;;4994876;28;20552;-71
2021/03/16 00:41:35;;;;;;;10.68;2.60;;;;;;;;;;4995034;28;20046;-71
2021/03/16 00:44:01;;;;;;;6.05;2.72;;;;;;;;;;4995051;28;20490;-71
2021/03/16 00:46:31;;;;;;;6.78;2.40;;;;;;;;;;4994489;28;20050;-71
2021/03/16 00:48:57;;;;;;;4.68;2.42;;;;;;;;;;4994775;28;20100;-71
2021/03/16 00:51:23;;;;;;;5.90;2.22;;;;;;;;;;5000290;28;20050;-71
2021/03/16 00:53:49;;;;;;;5.72;2.17;;;;;;;;;;4995262;28;20501;-70
2021/03/16 00:56:15;;;;;;;6.68;2.00;;;;;;;;;;4994083;28;20054;-71
2021/03/16 00:58:41;;;;;;;5.22;1.58;;;;;;;;;;4994929;28;20402;-71
2021/03/16 01:01:08;;;;;;;7.30;2.10;;;;;;;;;;4994561;28;20473;-71
2021/03/16 01:03:34;;;;;;;4.68;1.67;;;;;;;;;;4994596;28;20095;-71
2021/03/16 01:06:01;;;;;;;8.27;2.58;;;;;;;;;;4993827;28;20097;-70
2021/03/16 01:08:27;;;;;;;7.18;2.47;;;;;;;;;;4994754;28;20489;-71
2021/03/16 01:10:53;;;;;;;6.65;2.40;;;;;;;;;;4994573;28;20057;-70
2021/03/16 01:13:21;;;;;;;7.10;2.00;;;;;;;;;;4994833;28;20512;-72
2021/03/16 01:15:47;;;;;;;6.25;2.53;;;;;;;;;;5001111;28;20136;-71
2021/03/16 01:18:14;;;;;;;6.43;2.28;;;;;;;;;;4994469;28;20656;-72
2021/03/16 01:20:40;;;;;;;5.30;2.80;;;;;;;;;;4994545;28;20466;-71
2021/03/16 01:23:07;;;;;;;4.13;1.95;;;;;;;;;;5009097;28;20050;-72
2021/03/16 01:25:37;;;;;;;3.88;1.90;;;;;;;;;;5018339;28;20053;-71
2021/03/16 01:28:03;;;;;;;4.50;2.00;;;;;;;;;;5021452;28;20493;-71
2021/03/16 01:30:29;;;;;;;3.70;2.47;;;;;;;;;;5022682;28;20108;-71
2021/03/16 01:32:55;;;;;;;5.35;2.53;;;;;;;;;;5028145;28;20046;-71
2021/03/16 01:35:22;;;;;;;6.95;2.30;;;;;;;;;;5028956;28;20156;-71
2021/03/16 01:37:55;;;;;;;5.00;2.17;;;;;;;;;;5033272;28;20089;-71
2021/03/16 01:40:31;;;;;;;4.25;2.13;;;;;;;;;;5020584;28;20092;-71
2021/03/16 01:43:09;;;;;;;4.53;2.05;;;;;;;;;;5013873;28;20053;-70
2021/03/16 01:45:36;;;;;;;6.32;1.98;;;;;;;;;;5013027;28;20100;-71
2021/03/16 01:48:04;;;;;;;4.22;2.63;;;;;;;;;;5021226;28;20402;-71
2021/03/16 01:50:30;;;;;;;5.00;1.95;;;;;;;;;;5029818;28;20045;-71
2021/03/16 01:52:57;;;;;;;8.00;2.42;;;;;;;;;;5032760;28;20504;-71
2021/03/16 01:55:23;;;;;;;5.20;2.38;;;;;;;;;;5031263;28;20103;-71
2021/03/16 01:57:49;;;;;;;4.65;2.47;;;;;;;;;;5031889;28;20053;-72
2021/03/16 02:00:15;;;;;;;4.15;2.17;;;;;;;;;;5015199;28;20123;-71
2021/03/16 02:02:42;;;;;;;5.72;2.28;;;;;;;;;;5033129;28;20476;-71
2021/03/16 02:05:10;;;;;;;4.97;2.10;;;;;;;;;;5007070;28;20128;-71
2021/03/16 02:07:41;;;;;;;7.60;2.55;;;;;;;;;;4992897;28;20051;-71
2021/03/16 02:10:20;;;;;;;5.80;2.70;;;;;;;;;;4991824;28;20054;-71
2021/03/16 02:12:58;;;;;;;5.68;2.58;;;;;;;;;;4992365;28;20054;-70
2021/03/16 02:15:28;;;;;;;9.32;3.13;;;;;;;;;;5006013;28;20050;-68
2021/03/16 02:17:56;;;;;;;5.13;2.42;;;;;;;;;;5035428;28;20068;-71
2021/03/16 02:20:53;;;;;;;6.53;2.40;;;;;;;;;;5012642;28;20133;-70
2021/03/16 02:23:25;;;;;;;5.45;2.17;;;;;;;;;;5009980;28;20050;-71
2021/03/16 02:26:03;;;;;;;6.05;2.47;;;;;;;;;;4992198;28;20050;-71
2021/03/16 02:28:47;;;;;;;9.73;2.45;;;;;;;;;;4993218;28;20140;-71
2021/03/16 02:31:13;;;;;;;6.72;2.28;;;;;;;;;;4991557;28;20085;-71
2021/03/16 02:33:39;;;;;;;5.72;2.60;;;;;;;;;;4993665;28;20056;-71
2021/03/16 02:36:06;;;;;;;6.55;2.17;;;;;;;;;;5007105;28;20073;-71
2021/03/16 02:38:41;;;;;;;6.20;2.25;;;;;;;;;;5008126;28;20054;-71
2021/03/16 02:41:08;;;;;;;5.68;2.30;;;;;;;;;;5023311;28;20050;-71
2021/03/16 02:43:34;;;;;;;3.85;2.00;;;;;;;;;;5022699;28;20145;-71
2021/03/16 02:46:03;;;;;;;3.85;2.47;;;;;;;;;;5023832;28;20057;-71
2021/03/16 02:51:59;;;;;;;4.50;2.65;;;;;;;;;;5018858;28;20104;-69
2021/03/16 02:54:25;;;;;;;3.63;2.22;;;;;;;;;;5025880;28;20053;-69
2021/03/16 02:57:07;;;;;;;7.25;2.38;;;;;;;;;;5030149;28;20101;-71
2021/03/16 02:59:33;;;;;;;5.22;2.28;;;;;;;;;;5001687;28;20045;-71
2021/03/16 03:02:00;;;;;;;7.85;2.80;;;;;;;;;;5010845;28;20504;-71
2021/03/16 03:04:26;;;;;;;5.32;2.30;;;;;;;;;;5016265;28;20053;-71
2021/03/16 03:06:52;;;;;;;4.72;2.75;;;;;;;;;;5029971;28;20045;-71
2021/03/16 03:09:18;;;;;;;6.82;2.58;;;;;;;;;;4993170;28;20069;-71
2021/03/16 03:11:44;;;;;;;9.00;2.47;;;;;;;;;;4998038;28;20559;-72
2021/03/16 03:14:10;;;;;;;6.18;2.80;;;;;;;;;;5011883;28;20073;-72
2021/03/16 03:16:36;;;;;;;7.20;2.60;;;;;;;;;;5011342;28;20077;-72
2021/03/16 03:19:04;;;;;;;7.97;2.58;;;;;;;;;;5003462;28;20104;-72
2021/03/16 03:21:36;;;;;;;4.32;2.30;;;;;;;;;;4992102;28;20461;-72
2021/03/16 03:24:05;;;;;;;3.20;2.33;;;;;;;;;;4991565;28;20074;-72
2021/03/16 03:26:42;;;;;;;7.72;2.45;;;;;;;;;;4990426;28;20050;-72
2021/03/16 03:29:10;;;;;;;7.25;2.63;;;;;;;;;;4991324;28;20096;-72
2021/03/16 03:31:38;;;;;;;7.25;2.78;;;;;;;;;;4991047;28;20049;-72
2021/03/16 03:34:05;;;;;;;5.97;2.45;;;;;;;;;;5016766;28;20050;-71
2021/03/16 03:36:35;;;;;;;5.95;2.58;;;;;;;;;;5029638;28;20111;-72
2021/03/16 03:39:01;;;;;;;6.50;2.45;;;;;;;;;;5031428;28;20049;-70
2021/03/16 03:41:27;;;;;;;6.80;2.92;;;;;;;;;;5031486;28;20053;-72
2021/03/16 03:43:53;;;;;;;8.77;2.85;;;;;;;;;;5030326;28;20053;-72
2021/03/16 03:46:19;;;;;;;5.38;2.47;;;;;;;;;;5030566;28;20092;-72
2021/03/16 03:48:45;;;;;;;7.75;2.92;;;;;;;;;;5024695;28;20050;-71
2021/03/16 03:51:12;;;;;;;7.95;2.60;;;;;;;;;;5026803;28;20054;-72
2021/03/16 03:53:38;;;;;;;6.53;2.65;;;;;;;;;;5015829;28;20050;-71
2021/03/16 03:56:05;;;;;;;9.27;2.50;;;;;;;;;;5014939;28;20180;-71
2021/03/16 03:58:32;;;;;;;10.10;2.95;;;;;;;;;;5014369;28;20501;-71
2021/03/16 04:01:00;;;;;;;6.90;2.47;;;;;;;;;;5014093;28;20062;-70
2021/03/16 04:03:26;;;;;;;8.43;2.55;;;;;;;;;;5014358;28;20050;-70
2021/03/16 04:05:52;;;;;;;7.63;2.63;;;;;;;;;;5013535;28;20081;-72
2021/03/16 04:08:21;;;;;;;4.40;2.72;;;;;;;;;;5013904;28;20575;-71
2021/03/16 04:10:47;;;;;;;6.97;2.95;;;;;;;;;;5014676;28;20464;-71
2021/03/16 04:13:13;;;;;;;5.82;2.58;;;;;;;;;;5030414;28;20131;-70
2021/03/16 04:15:39;;;;;;;8.38;2.58;;;;;;;;;;5013517;28;20422;-71
2021/03/16 04:18:06;;;;;;;5.32;2.42;;;;;;;;;;5013834;28;20149;-71
2021/03/16 04:20:32;;;;;;;7.15;1.92;;;;;;;;;;5030252;28;20469;-70
2021/03/16 04:22:58;;;;;;;7.30;2.45;;;;;;;;;;5030129;28;20050;-71
2021/03/16 04:25:24;;;;;;;6.43;1.90;;;;;;;;;;5014467;28;20057;-70
2021/03/16 04:27:51;;;;;;;6.38;1.90;;;;;;;;;;5015062;28;20050;-69
2021/03/16 04:30:18;;;;;;;7.03;2.05;;;;;;;;;;5013960;28;20472;-69
2021/03/16 04:32:46;;;;;;;3.95;1.80;;;;;;;;;;5014961;28;20095;-70
2021/03/16 04:35:12;;;;;;;10.70;1.90;;;;;;;;;;5018481;28;20050;-70
2021/03/16 04:37:40;;;;;;;8.23;2.00;;;;;;;;;;5014746;28;20049;-70
2021/03/16 04:40:07;;;;;;;7.15;1.92;;;;;;;;;;5014645;28;20100;-69
2021/03/16 04:42:33;;;;;;;10.60;2.55;;;;;;;;;;5014722;28;20100;-70
2021/03/16 04:45:00;;;;;;;6.15;2.28;;;;;;;;;;5029782;28;20480;-67
2021/03/16 04:47:26;;;;;;;13.02;2.63;;;;;;;;;;5014045;28;20475;-70
2021/03/16 04:49:52;;;;;;;5.65;3.05;;;;;;;;;;5014478;28;20050;-70
2021/03/16 04:52:18;;;;;;;9.63;2.88;;;;;;;;;;5014442;28;20077;-70
2021/03/16 04:54:44;;;;;;;11.40;2.63;;;;;;;;;;5014441;28;20050;-69
2021/03/16 04:57:10;;;;;;;3.67;2.13;;;;;;;;;;5013717;28;20104;-70
2021/03/16 04:59:36;;;;;;;12.18;3.08;;;;;;;;;;5014211;28;20042;-70
2021/03/16 05:02:02;;;;;;;4.70;2.03;;;;;;;;;;5014279;28;20137;-70
2021/03/16 05:04:28;;;;;;;8.05;2.20;;;;;;;;;;5013343;28;20050;-70
2021/03/16 05:06:54;;;;;;;6.75;2.70;;;;;;;;;;5013255;28;20074;-70
2021/03/16 05:09:20;;;;;;;5.82;2.33;;;;;;;;;;5012500;28;20185;-70
2021/03/16 05:11:47;;;;;;;8.30;2.70;;;;;;;;;;5014265;28;20050;-70
2021/03/16 05:14:13;;;;;;;5.40;2.30;;;;;;;;;;5013969;28;20058;-69
2021/03/16 05:16:39;;;;;;;6.50;2.35;;;;;;;;;;5013408;28;20050;-70
2021/03/16 05:19:05;;;;;;;6.97;2.00;;;;;;;;;;5013612;28;20046;-70
2021/03/16 05:21:31;;;;;;;3.53;1.80;;;;;;;;;;5013776;28;20081;-71
2021/03/16 05:23:58;;;;;;;7.80;1.98;;;;;;;;;;5009838;28;20099;-70
2021/03/16 05:26:24;;;;;;;9.63;2.47;;;;;;;;;;4998158;28;20383;-71
2021/03/16 05:29:02;;;;;;;4.95;1.60;;;;;;;;;;4993983;28;20050;-70
2021/03/16 05:31:28;;;;;;;7.93;2.22;;;;;;;;;;4994129;28;20136;-71
2021/03/16 05:33:54;;;;;;;10.05;3.03;;;;;;;;;;5013719;28;20049;-70
2021/03/16 05:36:20;;;;;;;10.82;2.00;;;;;;;;;;5013595;28;20497;-70
2021/03/16 05:38:46;;;;;;;7.82;1.83;;;;;;;;;;5013863;28;20405;-69
2021/03/16 05:41:13;;;;;;;6.22;1.92;;;;;;;;;;5013399;28;20116;-69
2021/03/16 05:43:40;;;;;;;5.68;2.10;;;;;;;;;;5013526;28;20058;-69
2021/03/16 05:46:06;;;;;;;5.90;2.60;;;;;;;;;;5012906;28;20076;-70
2021/03/16 05:48:32;;;;;;;8.68;2.13;;;;;;;;;;5013529;28;20050;-70
2021/03/16 05:51:01;;;;;;;7.97;2.28;;;;;;;;;;5012159;28;20521;-70
2021/03/16 05:53:27;;;;;;;8.55;2.30;;;;;;;;;;5028506;28;20508;-69
2021/03/16 05:55:54;;;;;;;5.93;2.30;;;;;;;;;;5012517;28;20555;-70
2021/03/16 05:58:25;;;;;;;10.38;2.45;;;;;;;;;;5012022;28;20133;-70
2021/03/16 06:00:51;;;;;;;9.80;2.17;;;;;;;;;;5013641;28;20447;-69
2021/03/16 06:03:17;;;;;;;10.80;2.13;;;;;;;;;;5002157;28;20076;-70
2021/03/16 06:05:44;;;;;;;2.85;1.90;;;;;;;;;;5012550;28;20046;-70
2021/03/16 06:08:10;;;;;;;4.13;1.83;;;;;;;;;;5028141;28;20424;-71
2021/03/16 06:10:36;;;;;;;8.35;2.22;;;;;;;;;;5012965;28;20471;-70
2021/03/16 06:13:13;;;;;;;5.10;2.13;;;;;;;;;;5012831;28;20565;-69
2021/03/16 06:15:39;;;;;;;8.18;2.00;;;;;;;;;;5012533;28;20058;-69
2021/03/16 06:18:05;;;;;;;7.50;1.95;;;;;;;;;;5012678;28;20046;-69
2021/03/16 06:20:34;;;;;;;9.10;2.50;;;;;;;;;;5012895;28;20472;-69
2021/03/16 06:23:08;;;;;;;4.90;2.00;;;;;;;;;;5007139;28;20046;-71
2021/03/16 06:25:42;;;;;;;5.47;2.08;;;;;;;;;;4992766;28;20124;-70
2021/03/16 06:28:14;;;;;;;9.40;2.55;;;;;;;;;;4995242;28;20147;-69
2021/03/16 06:30:41;;;;;;;6.28;2.17;;;;;;;;;;5016716;28;20140;-68
2021/03/16 06:33:18;;;;;;;7.22;2.33;;;;;;;;;;5015953;28;20109;-69
2021/03/16 06:36:13;;;;;;;6.55;2.33;;;;;;;;;;5016313;28;20103;-70
2021/03/16 06:38:39;;;;;;;10.52;2.90;;;;;;;;;;4997186;28;20057;-70
2021/03/16 06:41:16;;;;;;;9.77;3.08;;;;;;;;;;5012379;28;20081;-71
2021/03/16 06:43:51;;;;;;;9.73;2.28;;;;;;;;;;5013316;28;20053;-69
2021/03/16 06:46:31;;;;;;;9.23;2.47;;;;;;;;;;4996459;28;20112;-69
2021/03/16 06:48:58;;;;;;;5.50;2.33;;;;;;;;;;5020048;28;20060;-69
2021/03/16 06:51:28;;;;;;;9.30;2.60;;;;;;;;;;5020407;28;20054;-69
2021/03/16 06:54:09;;;;;;;8.48;2.28;;;;;;;;;;5018968;28;20091;-68
2021/03/16 06:56:35;;;;;;;6.50;2.88;;;;;;;;;;5018075;28;20099;-69
2021/03/16 06:59:07;;;;;;;7.28;2.13;;;;;;;;;;5021900;28;20103;-69
2021/03/16 07:01:34;;;;;;;9.02;2.22;;;;;;;;;;5020703;28;20089;-69
2021/03/16 07:04:22;;;;;;;7.88;3.17;;;;;;;;;;5018912;28;20132;-68
2021/03/16 07:06:48;;;;;;;8.65;3.35;;;;;;;;;;5015625;28;20049;-69
2021/03/16 07:09:15;;;;;;;8.25;2.67;;;;;;;;;;5020605;28;21232;-69
2021/03/16 07:11:51;;;;;;;6.85;2.92;;;;;;;;;;5020997;28;20200;-70
2021/03/16 07:14:18;;;;;;;12.27;3.28;;;;;;;;;;5021903;28;20320;-69
2021/03/16 07:16:45;;;;;;;11.95;3.15;;;;;;;;;;5018880;28;20054;-69
2021/03/16 07:19:12;;;;;;;8.15;2.67;;;;;;;;;;5020762;28;20050;-70
2021/03/16 07:21:51;;;;;;;8.30;2.72;;;;;;;;;;5017008;28;20402;-70
2021/03/16 07:24:32;;;;;;;8.80;3.22;;;;;;;;;;5017185;28;20080;-69
2021/03/16 07:26:59;;;;;;;7.65;2.85;;;;;;;;;;5014999;28;20473;-69
2021/03/16 07:29:25;;;;;;;8.93;2.30;;;;;;;;;;5019716;28;20049;-70
2021/03/16 07:32:02;;;;;;;8.00;3.67;;;;;;;;;;5018858;28;21530;-69
2021/03/16 07:34:29;;;;;;;18.55;4.38;;;;;;;;;;5020461;28;20053;-69
2021/03/16 07:36:55;;;;;;;8.50;3.00;;;;;;;;;;5031382;28;20077;-69
2021/03/16 07:39:23;;;;;;;10.18;4.10;;;;;;;;;;4984724;28;20049;-69
2021/03/16 07:41:51;;;;;;;13.20;4.30;;;;;;;;;;5018546;28;20698;-69
2021/03/16 07:44:18;;;;;;;13.45;4.00;;;;;;;;;;4995401;28;20056;-69
2021/03/16 07:46:48;;;;;;;11.77;4.40;;;;;;;;;;5017862;28;20081;-68
2021/03/16 07:49:16;;;;;;;8.00;4.03;;;;;;;;;;5019358;28;20103;-70
2021/03/16 07:51:43;;;;;;;13.35;4.82;;;;;;;;;;5022146;28;20054;-69
2021/03/16 07:54:10;;;;;;;12.55;4.05;;;;;;;;;;5022246;28;20089;-69
2021/03/16 07:56:37;;;;;;;13.45;4.05;;;;;;;;;;5018519;28;20505;-70
2021/03/16 07:59:04;;;;;;;12.52;4.53;;;;;;;;;;5020876;28;20091;-68
2021/03/16 08:01:31;;;;;;;14.35;5.45;;;;;;;;;;5015338;28;20054;-68
2021/03/16 08:04:07;;;;;;;14.80;4.53;;;;;;;;;;5014112;28;20056;-69
2021/03/16 08:06:36;;;;;;;9.20;4.53;;;;;;;;;;5019308;28;20620;-68
2021/03/16 08:09:05;;;;;;;7.78;4.55;;;;;;;;;;5016726;28;20050;-69
2021/03/16 08:11:39;;;;;;;7.47;3.22;;;;;;;;;;5008554;28;20050;-70
2021/03/16 08:14:05;;;;;;;12.57;3.58;;;;;;;;;;5013043;28;20477;-71
2021/03/16 08:16:44;;;;;;;11.02;3.72;;;;;;;;;;5014584;28;20633;-73
2021/03/16 08:19:12;;;;;;;10.60;3.78;;;;;;;;;;5011111;28;20049;-70
2021/03/16 08:21:40;;;;;;;11.95;3.53;;;;;;;;;;5014267;28;20058;-71
2021/03/16 08:24:13;;;;;;;8.95;4.03;;;;;;;;;;5020455;28;20095;-73
2021/03/16 08:26:48;;;;;;;12.18;3.97;;;;;;;;;;5017844;28;20064;-72
2021/03/16 08:29:15;;;;;;;6.40;3.00;;;;;;;;;;5028313;28;20050;-70
2021/03/16 08:31:41;;;;;;;15.35;3.72;;;;;;;;;;5018604;28;20461;-71
2021/03/16 08:34:11;;;;;;;7.68;2.72;;;;;;;;;;5018244;28;20076;-71
2021/03/16 08:36:41;;;;;;;10.98;2.92;;;;;;;;;;5018780;28;20135;-71
2021/03/16 08:39:08;;;;;;;11.00;3.03;;;;;;;;;;5017872;28;20073;-71
2021/03/16 08:41:34;;;;;;;11.90;3.28;;;;;;;;;;5023177;28;20050;-72
2021/03/16 08:44:00;;;;;;;7.68;2.75;;;;;;;;;;5022777;28;20050;-71
2021/03/16 08:46:35;;;;;;;7.50;2.72;;;;;;;;;;5021428;28;20123;-70
2021/03/16 08:49:02;;;;;;;8.38;4.50;;;;;;;;;;5023251;28;20381;-71
2021/03/16 08:51:29;;;;;;;11.43;2.60;;;;;;;;;;5019662;28;20054;-70
2021/03/16 08:53:56;;;;;;;10.45;2.97;;;;;;;;;;5026807;28;20057;-69
2021/03/16 08:56:23;;;;;;;12.82;3.10;;;;;;;;;;5016834;28;20235;-72
2021/03/16 08:58:50;;;;;;;4.95;2.97;;;;;;;;;;5015495;28;20284;-70
2021/03/16 09:01:28;;;;;;;7.47;3.47;;;;;;;;;;5009704;28;20068;-70
2021/03/16 09:04:12;;;;;;;8.13;2.72;;;;;;;;;;5007655;28;20413;-70
2021/03/16 09:06:39;;;;;;;6.18;2.58;;;;;;;;;;5006928;28;20141;-70
2021/03/16 09:09:05;;;;;;;9.40;2.70;;;;;;;;;;5021510;28;20050;-71
2021/03/16 09:11:36;;;;;;;8.45;2.75;;;;;;;;;;5007759;28;20056;-71
2021/03/16 09:14:09;;;;;;;7.97;3.03;;;;;;;;;;5004775;28;20500;-70
2021/03/16 09:16:38;;;;;;;5.00;2.25;;;;;;;;;;5014964;28;20118;-71
2021/03/16 09:19:05;;;;;;;10.18;4.10;;;;;;;;;;5003864;28;20073;-72
2021/03/16 09:21:31;;;;;;;5.82;2.67;;;;;;;;;;5019105;28;20085;-71
2021/03/16 09:24:02;;;;;;;8.50;2.75;;;;;;;;;;5006780;28;20084;-71
2021/03/16 09:26:28;;;;;;;12.98;2.70;;;;;;;;;;5022308;28;20049;-71
2021/03/16 09:28:54;;;;;;;12.35;3.40;;;;;;;;;;5004949;28;20463;-71
2021/03/16 09:31:22;;;;;;;6.97;4.03;;;;;;;;;;5015093;28;20112;-71
2021/03/16 09:33:48;;;;;;;10.93;2.65;;;;;;;;;;5022722;28;20072;-71
2021/03/16 09:36:14;;;;;;;12.48;3.28;;;;;;;;;;4989423;28;20054;-70
2021/03/16 09:38:40;;;;;;;4.65;2.38;;;;;;;;;;5016210;28;20046;-70
2021/03/16 09:41:10;;;;;;;8.68;2.70;;;;;;;;;;5003409;28;20169;-71
2021/03/16 09:43:37;;;;;;;8.30;2.92;;;;;;;;;;5005013;28;20049;-71
2021/03/16 09:46:06;;;;;;;7.05;2.00;;;;;;;;;;5004318;28;20045;-71
2021/03/16 09:48:33;;;;;;;7.88;2.20;;;;;;;;;;5006345;28;20137;-71
2021/03/16 09:51:10;;;;;;;6.30;2.22;;;;;;;;;;5006049;28;20128;-71
2021/03/16 09:53:36;;;;;;;5.18;3.45;;;;;;;;;;5005744;28;20461;-70
2021/03/16 09:56:05;;;;;;;5.60;1.83;;;;;;;;;;5005270;28;20484;-71
2021/03/16 09:58:32;;;;;;;4.50;1.67;;;;;;;;;;5004983;28;20065;-71
2021/03/16 10:01:03;;;;;;;6.25;2.15;;;;;;;;;;5003135;28;20070;-71
2021/03/16 10:03:29;;;;;;;7.70;2.60;;;;;;;;;;5002034;28;20089;-71
2021/03/16 10:06:06;;;;;;;6.38;2.55;;;;;;;;;;5006429;28;20137;-72
2021/03/16 10:08:33;;;;;;;10.63;2.40;;;;;;;;;;5004218;28;20058;-72
2021/03/16 10:10:59;;;;;;;3.83;2.20;;;;;;;;;;5003811;28;20114;-71
2021/03/16 10:13:45;;;;;;;8.18;2.80;;;;;;;;;;5004740;28;20046;-72
2021/03/16 10:16:13;;;;;;;9.88;3.00;;;;;;;;;;5006330;28;20054;-71
2021/03/16 10:18:42;;;;;;;6.97;3.10;;;;;;;;;;5005589;28;20053;-71
2021/03/16 10:21:13;;;;;;;13.75;3.22;;;;;;;;;;5005684;28;20052;-71
2021/03/16 10:23:39;;;;;;;7.90;2.95;;;;;;;;;;5013773;28;20073;-76
2021/03/16 10:26:07;;;;;;;8.88;2.88;;;;;;;;;;5017262;28;20143;-74
2021/03/16 10:28:41;;;;;;;6.90;2.78;;;;;;;;;;5005700;28;20142;-74
2021/03/16 10:31:11;;;;;;;9.98;2.90;;;;;;;;;;5003421;28;20034;-71
2021/03/16 10:33:38;;;;;;;7.40;3.10;;;;;;;;;;5004945;28;20050;-73
2021/03/16 10:36:06;;;;;;;7.25;2.80;;;;;;;;;;5004310;28;20133;-74
2021/03/16 10:38:32;;;;;;;7.90;2.80;;;;;;;;;;5007278;28;20122;-70
2021/03/16 10:40:58;;;;;;;10.60;3.17;;;;;;;;;;5004904;28;20529;-75
2021/03/16 10:43:25;;;;;;;15.30;3.10;;;;;;;;;;5009280;28;20091;-72
2021/03/16 10:45:56;;;;;;;5.95;2.60;;;;;;;;;;5012848;28;20081;-73
2021/03/16 10:48:23;;;;;;;8.40;2.42;;;;;;;;;;5006394;28;20053;-74
2021/03/16 10:50:50;;;;;;;11.27;2.80;;;;;;;;;;5002909;28;20049;-75
2021/03/16 10:53:16;;;;;;;9.40;2.72;;;;;;;;;;5000103;28;20049;-70
2021/03/16 10:55:45;;;;;;;8.45;2.33;;;;;;;;;;5002561;28;20050;-72
2021/03/16 10:58:13;;;;;;;8.38;2.78;;;;;;;;;;5005387;28;20049;-72
2021/03/16 11:00:39;;;;;;;9.88;3.67;;;;;;;;;;5018588;28;20058;-73
2021/03/16 11:03:09;;;;;;;8.82;3.42;;;;;;;;;;5014587;28;20045;-73
2021/03/16 11:05:35;;;;;;;6.63;3.17;;;;;;;;;;5005740;28;20489;-72
2021/03/16 11:08:01;;;;;;;12.13;2.78;;;;;;;;;;5005053;28;20382;-74
2021/03/16 11:10:28;;;;;;;9.88;2.80;;;;;;;;;;5008041;28;20517;-72
2021/03/16 11:12:54;;;;;;;7.97;3.03;;;;;;;;;;5004643;28;20100;-71
2021/03/16 11:15:20;;;;;;;8.00;2.25;;;;;;;;;;5003674;28;20050;-73
2021/03/16 11:17:46;;;;;;;7.45;3.40;;;;;;;;;;5000820;28;20538;-74
2021/03/16 11:20:14;;;;;;;4.38;2.63;;;;;;;;;;5006422;28;20064;-71
2021/03/16 11:22:40;;;;;;;6.55;2.80;;;;;;;;;;5009810;28;20563;-74
2021/03/16 11:25:07;;;;;;;8.93;2.97;;;;;;;;;;5004712;28;20049;-77
2021/03/16 11:27:34;;;;;;;8.07;3.08;;;;;;;;;;5005624;28;20432;-76
2021/03/16 11:30:02;;;;;;;11.70;3.10;;;;;;;;;;5008177;28;20484;-76
2021/03/16 11:32:28;;;;;;;7.07;2.90;;;;;;;;;;5015854;28;20079;-73
2021/03/16 11:34:54;;;;;;;10.60;3.10;;;;;;;;;;5004869;28;20061;-76
2021/03/16 11:37:20;;;;;;;9.93;3.97;;;;;;;;;;5019109;28;20417;-74
2021/03/16 11:39:47;;;;;;;8.93;2.72;;;;;;;;;;5007410;28;20045;-81
2021/03/16 11:42:13;;;;;;;8.60;2.78;;;;;;;;;;5002621;28;20046;-79
2021/03/16 11:44:39;;;;;;;11.75;3.33;;;;;;;;;;5015757;28;20058;-79
2021/03/16 11:47:05;;;;;;;9.10;2.88;;;;;;;;;;4993845;28;20364;-78
2021/03/16 11:49:32;;;;;;;8.05;3.30;;;;;;;;;;5013201;28;20046;-78
2021/03/16 11:51:58;;;;;;;9.30;2.55;;;;;;;;;;5013743;28;20042;-77
2021/03/16 11:54:24;;;;;;;8.23;2.70;;;;;;;;;;5027311;28;20440;-78
2021/03/16 11:56:50;;;;;;;6.40;2.80;;;;;;;;;;5011079;28;20046;-79
2021/03/16 11:59:16;;;;;;;8.93;2.78;;;;;;;;;;5018006;28;20493;-80
2021/03/16 12:01:42;;;;;;;6.15;2.78;;;;;;;;;;5004629;28;20440;-77
2021/03/16 12:04:15;;;;;;;6.72;2.45;;;;;;;;;;5004542;28;20478;-73
2021/03/16 12:06:41;;;;;;;9.60;3.28;;;;;;;;;;5020141;28;20053;-74
2021/03/16 12:09:11;;;;;;;10.43;4.45;;;;;;;;;;5003317;28;20049;-79
2021/03/16 12:11:38;;;;;;;12.35;4.15;;;;;;;;;;4993649;28;20423;-74
2021/03/16 12:14:04;;;;;;;7.82;3.88;;;;;;;;;;5004029;28;20049;-75
2021/03/16 12:16:30;;;;;;;12.60;2.88;;;;;;;;;;4997453;28;20294;-75
2021/03/16 12:18:57;;;;;;;10.45;2.97;;;;;;;;;;5005908;28;20097;-72
2021/03/16 12:21:23;;;;;;;7.03;3.10;;;;;;;;;;5010419;28;20460;-76
2021/03/16 12:23:49;;;;;;;7.85;2.42;;;;;;;;;;5008295;28;20054;-73
2021/03/16 12:26:15;;;;;;;7.70;3.08;;;;;;;;;;5009397;28;20087;-75
2021/03/16 12:28:41;;;;;;;12.23;3.17;;;;;;;;;;5019595;28;20050;-74
2021/03/16 12:31:07;;;;;;;7.13;2.92;;;;;;;;;;5011382;28;20575;-75
2021/03/16 12:33:34;;;;;;;10.98;3.15;;;;;;;;;;5020756;28;20568;-72
2021/03/16 12:36:01;;;;;;;7.20;3.03;;;;;;;;;;5008701;28;20084;-73
2021/03/16 12:38:27;;;;;;;11.30;2.40;;;;;;;;;;5010655;28;20065;-73
2021/03/16 12:40:53;;;;;;;9.43;2.90;;;;;;;;;;5013296;28;20038;-73
2021/03/16 12:43:21;;;;;;;9.43;2.25;;;;;;;;;;5009931;28;20109;-73
2021/03/16 12:45:47;;;;;;;4.50;2.10;;;;;;;;;;5007052;28;20100;-71
2021/03/16 12:48:13;;;;;;;5.40;2.22;;;;;;;;;;5010447;28;20106;-71
2021/03/16 12:50:40;;;;;;;6.53;1.83;;;;;;;;;;5007587;28;20151;-71
2021/03/16 12:53:07;;;;;;;6.30;2.38;;;;;;;;;;5010480;28;20053;-74
2021/03/16 12:55:33;;;;;;;12.35;3.05;;;;;;;;;;5009260;28;20473;-74
2021/03/16 12:58:00;;;;;;;5.30;2.17;;;;;;;;;;5008238;28;20080;-73
2021/03/16 13:00:27;;;;;;;4.70;2.13;;;;;;;;;;5022680;28;20064;-75
2021/03/16 13:02:53;;;;;;;7.20;2.58;;;;;;;;;;5008123;28;20052;-74
2021/03/16 13:05:20;;;;;;;6.40;2.72;;;;;;;;;;5008603;28;20463;-74
2021/03/16 13:07:46;;;;;;;11.07;2.33;;;;;;;;;;5023653;28;20455;-74
2021/03/16 13:10:13;;;;;;;7.47;2.15;;;;;;;;;;5014921;28;20104;-73
2021/03/16 13:12:39;;;;;;;5.05;2.15;;;;;;;;;;5007604;28;20057;-72
2021/03/16 13:15:06;;;;;;;5.95;2.55;;;;;;;;;;5027992;28;20042;-69
2021/03/16 13:17:33;;;;;;;6.78;2.22;;;;;;;;;;5017978;28;20058;-73
2021/03/16 13:20:01;;;;;;;4.60;2.13;;;;;;;;;;5020128;28;20041;-71
2021/03/16 13:22:27;;;;;;;7.00;2.42;;;;;;;;;;5022361;28;20055;-75
2021/03/16 13:24:53;;;;;;;8.15;2.30;;;;;;;;;;5022723;28;20049;-75
2021/03/16 13:27:19;;;;;;;3.42;1.60;;;;;;;;;;5022932;28;20394;-75
2021/03/16 13:29:45;;;;;;;3.75;2.10;;;;;;;;;;5021969;28;20500;-75
2021/03/16 13:32:12;;;;;;;2.88;1.70;;;;;;;;;;5019563;28;20049;-73
2021/03/16 13:34:39;;;;;;;4.63;2.00;;;;;;;;;;5013190;28;20046;-71
2021/03/16 13:37:06;;;;;;;5.68;2.15;;;;;;;;;;5018153;28;20041;-72
2021/03/16 13:39:32;;;;;;;5.63;2.22;;;;;;;;;;5020978;28;20053;-71
2021/03/16 13:41:59;;;;;;;8.60;2.30;;;;;;;;;;5026206;28;20087;-71
2021/03/16 13:44:25;;;;;;;5.22;2.05;;;;;;;;;;5024767;28;20501;-74
2021/03/16 13:46:51;;;;;;;8.02;2.45;;;;;;;;;;5021640;28;20504;-75
2021/03/16 13:49:18;;;;;;;6.57;2.30;;;;;;;;;;5018307;28;20208;-77
2021/03/16 13:51:45;;;;;;;6.53;2.00;;;;;;;;;;5020180;28;20079;-76
2021/03/16 13:54:11;;;;;;;3.80;1.60;;;;;;;;;;4995678;28;20095;-76
2021/03/16 13:56:37;;;;;;;7.70;2.30;;;;;;;;;;5012071;28;20089;-73
2021/03/16 13:59:03;;;;;;;7.15;3.20;;;;;;;;;;5020204;28;20045;-73
2021/03/16 14:01:31;;;;;;;5.13;2.13;;;;;;;;;;5023628;28;20052;-79
2021/03/16 14:03:59;;;;;;;5.43;1.83;;;;;;;;;;4997740;28;20041;-77
2021/03/16 14:06:31;;;;;;;7.05;1.98;;;;;;;;;;4984665;28;20513;-77
2021/03/16 14:08:58;;;;;;;5.57;1.60;;;;;;;;;;5001123;28;20556;-74
2021/03/16 14:11:29;;;;;;;3.75;1.52;;;;;;;;;;4997227;28;20074;-78
2021/03/16 14:13:55;;;;;;;4.60;2.20;;;;;;;;;;5021548;28;20041;-75
2021/03/16 14:16:48;;;;;;;7.18;1.60;;;;;;;;;;5023001;28;20100;-78
2021/03/16 14:19:16;;;;;;;3.55;1.35;;;;;;;;;;5037708;28;20060;-75
2021/03/16 14:21:42;;;;;;;3.00;1.60;;;;;;;;;;5009268;28;20050;-76
2021/03/16 14:24:09;;;;;;;4.32;1.92;;;;;;;;;;5021962;28;20052;-76
2021/03/16 14:26:59;;;;;;;4.65;1.52;;;;;;;;;;5017956;28;20405;-76
2021/03/16 14:29:31;;;;;;;8.00;1.90;;;;;;;;;;4997939;28;20054;-74
2021/03/16 14:31:57;;;;;;;4.13;1.52;;;;;;;;;;5013793;28;20539;-74
2021/03/16 14:34:23;;;;;;;5.00;1.50;;;;;;;;;;5020819;28;20072;-75
2021/03/16 14:36:53;;;;;;;5.10;1.55;;;;;;;;;;4981683;28;20060;-77
2021/03/16 14:39:41;;;;;;;;;;;;;;;;;;;;;
2021/03/16 14:42:15;;;;;;;3.20;1.48;;;;;;;;;;4996851;28;20049;-76
2021/03/16 14:44:44;;;;;;;3.72;1.35;;;;;;;;;;4994190;28;20057;-74
2021/03/16 14:47:11;;;;;;;3.15;1.52;;;;;;;;;;5023135;28;20069;-74
2021/03/16 14:49:38;;;;;;;3.00;1.48;;;;;;;;;;4997376;28;20628;-74